sensor_id;sensor_type;location;lat;lon;timestamp;P1;durP1;ratioP1;P2;durP2;ratioP2
12986;SDS011;58897;51.960;5.582;2023-05-10T00:00:02;28.77;;;15.63;;
12986;SDS011;58897;51.960;5.582;2023-05-10T00:02:30;25.53;;;15.53;;
12986;SDS011;58897;51.960;5.582;2023-05-10T00:04:57;30.97;;;16.83;;
12986;SDS011;58897;51.960;5.582;2023-05-10T00:07:24;28.53;;;16.60;;
12986;SDS011;58897;51.960;5.582;2023-05-10T00:09:51;29.33;;;16.83;;
12986;SDS011;58897;51.960;5.582;2023-05-10T00:12:17;25.87;;;15.30;;
12986;SDS011;58897;51.960;5.582;2023-05-10T00:14:44;26.40;;;15.77;;
12986;SDS011;58897;51.960;5.582;2023-05-10T00:17:11;29.67;;;16.83;;
12986;SDS011;58897;51.960;5.582;2023-05-10T00:19:37;25.20;;;14.67;;
12986;SDS011;58897;51.960;5.582;2023-05-10T00:22:04;24.60;;;15.80;;
12986;SDS011;58897;51.960;5.582;2023-05-10T00:24:30;29.10;;;16.10;;
12986;SDS011;58897;51.960;5.582;2023-05-10T00:26:57;27.53;;;16.70;;
12986;SDS011;58897;51.960;5.582;2023-05-10T00:29:23;24.93;;;15.13;;
12986;SDS011;58897;51.960;5.582;2023-05-10T00:31:50;24.20;;;14.90;;
12986;SDS011;58897;51.960;5.582;2023-05-10T00:34:16;25.07;;;15.23;;
12986;SDS011;58897;51.960;5.582;2023-05-10T00:36:43;28.10;;;15.90;;
12986;SDS011;58897;51.960;5.582;2023-05-10T00:39:09;29.13;;;16.23;;
12986;SDS011;58897;51.960;5.582;2023-05-10T00:41:36;24.90;;;15.90;;
12986;SDS011;58897;51.960;5.582;2023-05-10T00:44:02;27.80;;;15.70;;
12986;SDS011;58897;51.960;5.582;2023-05-10T00:46:30;26.40;;;15.03;;
12986;SDS011;58897;51.960;5.582;2023-05-10T00:48:57;28.00;;;15.53;;
12986;SDS011;58897;51.960;5.582;2023-05-10T00:51:24;26.43;;;15.13;;
12986;SDS011;58897;51.960;5.582;2023-05-10T00:53:51;28.13;;;15.20;;
12986;SDS011;58897;51.960;5.582;2023-05-10T00:56:17;26.43;;;15.33;;
12986;SDS011;58897;51.960;5.582;2023-05-10T00:58:44;25.33;;;14.53;;
12986;SDS011;58897;51.960;5.582;2023-05-10T01:01:11;26.33;;;13.83;;
12986;SDS011;58897;51.960;5.582;2023-05-10T01:03:38;25.37;;;13.60;;
12986;SDS011;58897;51.960;5.582;2023-05-10T01:06:06;24.73;;;14.33;;
12986;SDS011;58897;51.960;5.582;2023-05-10T01:08:32;24.47;;;12.83;;
12986;SDS011;58897;51.960;5.582;2023-05-10T01:10:59;27.17;;;14.80;;
12986;SDS011;58897;51.960;5.582;2023-05-10T01:15:58;28.60;;;13.93;;
12986;SDS011;58897;51.960;5.582;2023-05-10T01:18:28;28.37;;;14.10;;
12986;SDS011;58897;51.960;5.582;2023-05-10T01:21:04;27.73;;;14.00;;
12986;SDS011;58897;51.960;5.582;2023-05-10T01:27:17;30.13;;;14.43;;
12986;SDS011;58897;51.960;5.582;2023-05-10T01:35:40;28.97;;;14.67;;
12986;SDS011;58897;51.960;5.582;2023-05-10T01:41:14;28.63;;;15.07;;
12986;SDS011;58897;51.960;5.582;2023-05-10T01:47:11;28.07;;;15.23;;
12986;SDS011;58897;51.960;5.582;2023-05-10T01:49:43;29.60;;;14.53;;
12986;SDS011;58897;51.960;5.582;2023-05-10T01:52:14;31.40;;;15.87;;
12986;SDS011;58897;51.960;5.582;2023-05-10T01:54:49;30.30;;;15.37;;
12986;SDS011;58897;51.960;5.582;2023-05-10T01:57:20;34.47;;;15.50;;
12986;SDS011;58897;51.960;5.582;2023-05-10T01:59:51;35.23;;;15.97;;
12986;SDS011;58897;51.960;5.582;2023-05-10T02:02:20;36.73;;;16.60;;
12986;SDS011;58897;51.960;5.582;2023-05-10T02:04:47;32.70;;;15.63;;
12986;SDS011;58897;51.960;5.582;2023-05-10T02:07:16;35.23;;;17.20;;
12986;SDS011;58897;51.960;5.582;2023-05-10T02:09:44;34.43;;;15.90;;
12986;SDS011;58897;51.960;5.582;2023-05-10T02:12:14;33.27;;;16.63;;
12986;SDS011;58897;51.960;5.582;2023-05-10T02:14:42;33.80;;;17.23;;
12986;SDS011;58897;51.960;5.582;2023-05-10T02:17:11;36.83;;;18.07;;
12986;SDS011;58897;51.960;5.582;2023-05-10T02:19:39;36.23;;;18.13;;
12986;SDS011;58897;51.960;5.582;2023-05-10T02:22:07;37.13;;;18.00;;
12986;SDS011;58897;51.960;5.582;2023-05-10T02:24:35;39.07;;;18.10;;
12986;SDS011;58897;51.960;5.582;2023-05-10T02:27:03;36.60;;;18.03;;
12986;SDS011;58897;51.960;5.582;2023-05-10T02:29:31;37.93;;;18.73;;
12986;SDS011;58897;51.960;5.582;2023-05-10T02:31:59;35.83;;;17.60;;
12986;SDS011;58897;51.960;5.582;2023-05-10T02:34:27;34.77;;;18.03;;
12986;SDS011;58897;51.960;5.582;2023-05-10T02:36:56;37.40;;;18.80;;
12986;SDS011;58897;51.960;5.582;2023-05-10T02:39:23;35.23;;;18.00;;
12986;SDS011;58897;51.960;5.582;2023-05-10T02:41:52;33.00;;;17.43;;
12986;SDS011;58897;51.960;5.582;2023-05-10T02:44:19;38.60;;;18.57;;
12986;SDS011;58897;51.960;5.582;2023-05-10T02:46:48;34.80;;;17.27;;
12986;SDS011;58897;51.960;5.582;2023-05-10T02:49:15;32.90;;;16.67;;
12986;SDS011;58897;51.960;5.582;2023-05-10T02:51:44;37.13;;;17.87;;
12986;SDS011;58897;51.960;5.582;2023-05-10T02:54:18;35.17;;;17.70;;
12986;SDS011;58897;51.960;5.582;2023-05-10T02:56:53;32.10;;;15.63;;
12986;SDS011;58897;51.960;5.582;2023-05-10T02:59:23;35.80;;;17.63;;
12986;SDS011;58897;51.960;5.582;2023-05-10T03:01:50;32.43;;;17.00;;
12986;SDS011;58897;51.960;5.582;2023-05-10T03:04:16;32.87;;;17.67;;
12986;SDS011;58897;51.960;5.582;2023-05-10T03:06:43;33.63;;;16.87;;
12986;SDS011;58897;51.960;5.582;2023-05-10T03:09:10;29.77;;;16.20;;
12986;SDS011;58897;51.960;5.582;2023-05-10T03:14:34;31.43;;;15.90;;
12986;SDS011;58897;51.960;5.582;2023-05-10T03:20:11;33.13;;;16.50;;
12986;SDS011;58897;51.960;5.582;2023-05-10T03:22:44;32.80;;;15.93;;
12986;SDS011;58897;51.960;5.582;2023-05-10T03:25:13;31.73;;;15.27;;
12986;SDS011;58897;51.960;5.582;2023-05-10T03:27:43;32.03;;;16.00;;
12986;SDS011;58897;51.960;5.582;2023-05-10T03:30:10;29.70;;;15.03;;
12986;SDS011;58897;51.960;5.582;2023-05-10T03:32:38;33.23;;;16.37;;
12986;SDS011;58897;51.960;5.582;2023-05-10T03:35:08;31.93;;;15.83;;
12986;SDS011;58897;51.960;5.582;2023-05-10T03:37:35;30.30;;;15.37;;
12986;SDS011;58897;51.960;5.582;2023-05-10T03:40:02;29.33;;;15.73;;
12986;SDS011;58897;51.960;5.582;2023-05-10T03:42:29;31.63;;;16.03;;
12986;SDS011;58897;51.960;5.582;2023-05-10T03:44:55;30.00;;;15.93;;
12986;SDS011;58897;51.960;5.582;2023-05-10T03:47:22;31.70;;;15.73;;
12986;SDS011;58897;51.960;5.582;2023-05-10T03:49:49;35.93;;;17.00;;
12986;SDS011;58897;51.960;5.582;2023-05-10T03:52:15;32.67;;;16.87;;
12986;SDS011;58897;51.960;5.582;2023-05-10T03:54:42;31.10;;;16.10;;
12986;SDS011;58897;51.960;5.582;2023-05-10T03:57:08;35.67;;;17.70;;
12986;SDS011;58897;51.960;5.582;2023-05-10T03:59:35;35.57;;;16.63;;
12986;SDS011;58897;51.960;5.582;2023-05-10T04:02:02;34.37;;;17.77;;
12986;SDS011;58897;51.960;5.582;2023-05-10T04:04:29;31.47;;;16.47;;
12986;SDS011;58897;51.960;5.582;2023-05-10T04:06:55;29.40;;;15.17;;
12986;SDS011;58897;51.960;5.582;2023-05-10T04:09:22;28.90;;;16.03;;
12986;SDS011;58897;51.960;5.582;2023-05-10T04:11:48;29.50;;;15.60;;
12986;SDS011;58897;51.960;5.582;2023-05-10T04:14:15;30.63;;;15.63;;
12986;SDS011;58897;51.960;5.582;2023-05-10T04:16:42;29.57;;;15.40;;
12986;SDS011;58897;51.960;5.582;2023-05-10T04:19:09;31.50;;;15.50;;
12986;SDS011;58897;51.960;5.582;2023-05-10T04:21:36;33.10;;;14.63;;
12986;SDS011;58897;51.960;5.582;2023-05-10T04:24:02;27.70;;;13.60;;
12986;SDS011;58897;51.960;5.582;2023-05-10T04:26:29;28.47;;;14.00;;
12986;SDS011;58897;51.960;5.582;2023-05-10T04:28:56;28.47;;;14.83;;
12986;SDS011;58897;51.960;5.582;2023-05-10T04:31:22;30.47;;;14.07;;
12986;SDS011;58897;51.960;5.582;2023-05-10T04:33:49;26.53;;;13.50;;
12986;SDS011;58897;51.960;5.582;2023-05-10T04:36:16;27.20;;;13.67;;
12986;SDS011;58897;51.960;5.582;2023-05-10T04:38:42;28.53;;;14.53;;
12986;SDS011;58897;51.960;5.582;2023-05-10T04:41:10;28.97;;;14.43;;
12986;SDS011;58897;51.960;5.582;2023-05-10T04:43:37;26.77;;;13.77;;
12986;SDS011;58897;51.960;5.582;2023-05-10T04:46:05;25.20;;;13.53;;
12986;SDS011;58897;51.960;5.582;2023-05-10T04:48:32;31.37;;;14.87;;
12986;SDS011;58897;51.960;5.582;2023-05-10T04:50:58;31.40;;;14.87;;
12986;SDS011;58897;51.960;5.582;2023-05-10T04:53:25;33.40;;;14.97;;
12986;SDS011;58897;51.960;5.582;2023-05-10T04:55:52;32.63;;;14.40;;
12986;SDS011;58897;51.960;5.582;2023-05-10T04:58:18;29.20;;;14.80;;
12986;SDS011;58897;51.960;5.582;2023-05-10T05:00:45;29.53;;;15.40;;
12986;SDS011;58897;51.960;5.582;2023-05-10T05:03:11;33.50;;;15.10;;
12986;SDS011;58897;51.960;5.582;2023-05-10T05:05:38;28.10;;;15.33;;
12986;SDS011;58897;51.960;5.582;2023-05-10T05:08:05;31.60;;;15.83;;
12986;SDS011;58897;51.960;5.582;2023-05-10T05:10:31;29.63;;;14.47;;
12986;SDS011;58897;51.960;5.582;2023-05-10T05:12:58;29.20;;;15.07;;
12986;SDS011;58897;51.960;5.582;2023-05-10T05:15:24;31.30;;;15.23;;
12986;SDS011;58897;51.960;5.582;2023-05-10T05:17:51;33.63;;;15.37;;
12986;SDS011;58897;51.960;5.582;2023-05-10T05:20:18;31.13;;;14.97;;
12986;SDS011;58897;51.960;5.582;2023-05-10T05:22:45;31.97;;;14.57;;
12986;SDS011;58897;51.960;5.582;2023-05-10T05:25:11;30.37;;;14.47;;
12986;SDS011;58897;51.960;5.582;2023-05-10T05:27:38;28.27;;;14.93;;
12986;SDS011;58897;51.960;5.582;2023-05-10T05:30:05;34.10;;;15.87;;
12986;SDS011;58897;51.960;5.582;2023-05-10T05:32:32;30.70;;;14.50;;
12986;SDS011;58897;51.960;5.582;2023-05-10T05:34:59;28.40;;;14.30;;
12986;SDS011;58897;51.960;5.582;2023-05-10T05:37:25;32.10;;;15.60;;
12986;SDS011;58897;51.960;5.582;2023-05-10T05:39:52;26.33;;;14.47;;
12986;SDS011;58897;51.960;5.582;2023-05-10T05:42:20;38.13;;;16.03;;
12986;SDS011;58897;51.960;5.582;2023-05-10T05:44:47;34.27;;;15.80;;
12986;SDS011;58897;51.960;5.582;2023-05-10T05:47:13;29.67;;;15.07;;
12986;SDS011;58897;51.960;5.582;2023-05-10T05:49:40;32.50;;;16.33;;
12986;SDS011;58897;51.960;5.582;2023-05-10T05:52:06;33.77;;;15.53;;
12986;SDS011;58897;51.960;5.582;2023-05-10T05:54:33;34.47;;;16.00;;
12986;SDS011;58897;51.960;5.582;2023-05-10T05:57:00;30.90;;;16.07;;
12986;SDS011;58897;51.960;5.582;2023-05-10T05:59:27;34.60;;;15.40;;
12986;SDS011;58897;51.960;5.582;2023-05-10T06:01:54;34.97;;;16.23;;
12986;SDS011;58897;51.960;5.582;2023-05-10T06:04:20;31.07;;;16.57;;
12986;SDS011;58897;51.960;5.582;2023-05-10T06:06:47;36.27;;;18.07;;
12986;SDS011;58897;51.960;5.582;2023-05-10T06:09:14;38.97;;;17.30;;
12986;SDS011;58897;51.960;5.582;2023-05-10T06:11:40;36.17;;;18.40;;
12986;SDS011;58897;51.960;5.582;2023-05-10T06:14:07;37.80;;;18.50;;
12986;SDS011;58897;51.960;5.582;2023-05-10T06:16:34;42.00;;;17.93;;
12986;SDS011;58897;51.960;5.582;2023-05-10T06:19:01;38.17;;;18.80;;
12986;SDS011;58897;51.960;5.582;2023-05-10T06:21:28;37.67;;;18.60;;
12986;SDS011;58897;51.960;5.582;2023-05-10T06:23:55;39.73;;;19.03;;
12986;SDS011;58897;51.960;5.582;2023-05-10T06:26:21;37.23;;;18.83;;
12986;SDS011;58897;51.960;5.582;2023-05-10T06:28:48;42.13;;;19.77;;
12986;SDS011;58897;51.960;5.582;2023-05-10T06:31:14;39.10;;;18.67;;
12986;SDS011;58897;51.960;5.582;2023-05-10T06:33:41;39.93;;;19.77;;
12986;SDS011;58897;51.960;5.582;2023-05-10T06:36:07;46.23;;;20.57;;
12986;SDS011;58897;51.960;5.582;2023-05-10T06:38:34;47.20;;;19.53;;
12986;SDS011;58897;51.960;5.582;2023-05-10T06:41:00;42.00;;;21.57;;
12986;SDS011;58897;51.960;5.582;2023-05-10T06:43:27;43.57;;;19.97;;
12986;SDS011;58897;51.960;5.582;2023-05-10T06:45:55;42.80;;;20.43;;
12986;SDS011;58897;51.960;5.582;2023-05-10T06:48:22;45.27;;;20.00;;
12986;SDS011;58897;51.960;5.582;2023-05-10T06:50:48;36.27;;;18.37;;
12986;SDS011;58897;51.960;5.582;2023-05-10T06:53:15;39.23;;;18.43;;
12986;SDS011;58897;51.960;5.582;2023-05-10T06:55:42;38.13;;;18.33;;
12986;SDS011;58897;51.960;5.582;2023-05-10T06:58:09;40.83;;;19.30;;
12986;SDS011;58897;51.960;5.582;2023-05-10T07:00:35;41.57;;;18.30;;
12986;SDS011;58897;51.960;5.582;2023-05-10T07:03:05;41.30;;;20.23;;
12986;SDS011;58897;51.960;5.582;2023-05-10T07:05:32;48.83;;;20.77;;
12986;SDS011;58897;51.960;5.582;2023-05-10T07:07:58;40.33;;;19.13;;
12986;SDS011;58897;51.960;5.582;2023-05-10T07:10:25;43.93;;;19.63;;
12986;SDS011;58897;51.960;5.582;2023-05-10T07:12:52;38.87;;;18.93;;
12986;SDS011;58897;51.960;5.582;2023-05-10T07:15:19;47.27;;;18.67;;
12986;SDS011;58897;51.960;5.582;2023-05-10T07:17:46;39.83;;;18.30;;
12986;SDS011;58897;51.960;5.582;2023-05-10T07:20:12;47.30;;;20.00;;
12986;SDS011;58897;51.960;5.582;2023-05-10T07:22:39;39.10;;;17.97;;
12986;SDS011;58897;51.960;5.582;2023-05-10T07:25:06;45.63;;;21.10;;
12986;SDS011;58897;51.960;5.582;2023-05-10T07:27:32;38.70;;;18.67;;
12986;SDS011;58897;51.960;5.582;2023-05-10T07:29:59;41.63;;;20.40;;
12986;SDS011;58897;51.960;5.582;2023-05-10T07:32:26;40.23;;;19.00;;
12986;SDS011;58897;51.960;5.582;2023-05-10T07:34:53;37.43;;;18.20;;
12986;SDS011;58897;51.960;5.582;2023-05-10T07:37:20;38.80;;;18.63;;
12986;SDS011;58897;51.960;5.582;2023-05-10T07:39:46;34.77;;;17.23;;
12986;SDS011;58897;51.960;5.582;2023-05-10T07:42:12;35.20;;;17.67;;
12986;SDS011;58897;51.960;5.582;2023-05-10T07:44:39;37.60;;;17.37;;
12986;SDS011;58897;51.960;5.582;2023-05-10T07:47:05;42.17;;;18.57;;
12986;SDS011;58897;51.960;5.582;2023-05-10T07:49:32;30.27;;;15.87;;
12986;SDS011;58897;51.960;5.582;2023-05-10T07:51:58;27.70;;;13.83;;
12986;SDS011;58897;51.960;5.582;2023-05-10T07:54:25;30.07;;;14.00;;
12986;SDS011;58897;51.960;5.582;2023-05-10T07:56:52;26.57;;;13.37;;
12986;SDS011;58897;51.960;5.582;2023-05-10T07:59:18;26.47;;;13.50;;
12986;SDS011;58897;51.960;5.582;2023-05-10T08:01:45;22.47;;;11.97;;
12986;SDS011;58897;51.960;5.582;2023-05-10T08:04:11;23.90;;;11.77;;
12986;SDS011;58897;51.960;5.582;2023-05-10T08:06:38;24.23;;;11.70;;
12986;SDS011;58897;51.960;5.582;2023-05-10T08:09:06;18.77;;;10.63;;
12986;SDS011;58897;51.960;5.582;2023-05-10T08:11:33;20.63;;;10.87;;
12986;SDS011;58897;51.960;5.582;2023-05-10T08:14:00;19.97;;;9.23;;
12986;SDS011;58897;51.960;5.582;2023-05-10T08:16:27;15.17;;;8.80;;
12986;SDS011;58897;51.960;5.582;2023-05-10T08:18:53;12.13;;;7.80;;
12986;SDS011;58897;51.960;5.582;2023-05-10T08:21:21;10.43;;;6.00;;
12986;SDS011;58897;51.960;5.582;2023-05-10T08:23:48;8.73;;;5.37;;
12986;SDS011;58897;51.960;5.582;2023-05-10T08:26:15;8.07;;;4.77;;
12986;SDS011;58897;51.960;5.582;2023-05-10T08:28:41;9.63;;;5.70;;
12986;SDS011;58897;51.960;5.582;2023-05-10T08:31:08;8.57;;;5.30;;
12986;SDS011;58897;51.960;5.582;2023-05-10T08:33:35;13.30;;;5.83;;
12986;SDS011;58897;51.960;5.582;2023-05-10T08:36:01;8.37;;;5.37;;
12986;SDS011;58897;51.960;5.582;2023-05-10T08:38:28;9.67;;;4.97;;
12986;SDS011;58897;51.960;5.582;2023-05-10T08:40:54;9.13;;;5.80;;
12986;SDS011;58897;51.960;5.582;2023-05-10T08:43:28;10.27;;;5.97;;
12986;SDS011;58897;51.960;5.582;2023-05-10T08:45:56;8.00;;;4.70;;
12986;SDS011;58897;51.960;5.582;2023-05-10T08:48:26;9.33;;;6.10;;
12986;SDS011;58897;51.960;5.582;2023-05-10T08:50:55;9.30;;;6.00;;
12986;SDS011;58897;51.960;5.582;2023-05-10T08:53:25;8.47;;;5.43;;
12986;SDS011;58897;51.960;5.582;2023-05-10T08:55:53;10.40;;;5.80;;
12986;SDS011;58897;51.960;5.582;2023-05-10T08:58:21;11.30;;;6.23;;
12986;SDS011;58897;51.960;5.582;2023-05-10T09:00:48;8.67;;;5.67;;
12986;SDS011;58897;51.960;5.582;2023-05-10T09:03:18;9.70;;;5.57;;
12986;SDS011;58897;51.960;5.582;2023-05-10T09:05:45;7.93;;;5.30;;
12986;SDS011;58897;51.960;5.582;2023-05-10T09:08:12;9.70;;;5.67;;
12986;SDS011;58897;51.960;5.582;2023-05-10T09:10:40;9.70;;;6.00;;
12986;SDS011;58897;51.960;5.582;2023-05-10T09:13:10;9.50;;;6.10;;
12986;SDS011;58897;51.960;5.582;2023-05-10T09:15:38;8.73;;;6.20;;
12986;SDS011;58897;51.960;5.582;2023-05-10T09:18:05;9.27;;;5.77;;
12986;SDS011;58897;51.960;5.582;2023-05-10T09:20:31;7.60;;;5.27;;
12986;SDS011;58897;51.960;5.582;2023-05-10T09:22:58;10.87;;;5.80;;
12986;SDS011;58897;51.960;5.582;2023-05-10T09:25:24;9.90;;;5.73;;
12986;SDS011;58897;51.960;5.582;2023-05-10T09:27:51;10.93;;;6.10;;
12986;SDS011;58897;51.960;5.582;2023-05-10T09:32:52;8.83;;;6.07;;
12986;SDS011;58897;51.960;5.582;2023-05-10T09:35:20;10.07;;;5.77;;
12986;SDS011;58897;51.960;5.582;2023-05-10T09:37:49;9.77;;;5.87;;
12986;SDS011;58897;51.960;5.582;2023-05-10T09:40:17;9.70;;;6.23;;
12986;SDS011;58897;51.960;5.582;2023-05-10T09:42:52;11.20;;;6.07;;
12986;SDS011;58897;51.960;5.582;2023-05-10T09:45:32;8.20;;;5.90;;
12986;SDS011;58897;51.960;5.582;2023-05-10T09:48:04;11.67;;;5.93;;
12986;SDS011;58897;51.960;5.582;2023-05-10T09:50:30;8.73;;;5.90;;
12986;SDS011;58897;51.960;5.582;2023-05-10T09:55:25;10.03;;;5.87;;
12986;SDS011;58897;51.960;5.582;2023-05-10T09:58:15;10.10;;;6.33;;
12986;SDS011;58897;51.960;5.582;2023-05-10T10:00:43;10.77;;;5.63;;
12986;SDS011;58897;51.960;5.582;2023-05-10T10:03:14;11.00;;;5.83;;
12986;SDS011;58897;51.960;5.582;2023-05-10T10:05:42;9.13;;;5.80;;
12986;SDS011;58897;51.960;5.582;2023-05-10T10:08:10;12.37;;;6.90;;
12986;SDS011;58897;51.960;5.582;2023-05-10T10:10:38;9.53;;;5.47;;
12986;SDS011;58897;51.960;5.582;2023-05-10T10:13:07;10.17;;;5.93;;
12986;SDS011;58897;51.960;5.582;2023-05-10T10:15:34;10.00;;;6.40;;
12986;SDS011;58897;51.960;5.582;2023-05-10T10:18:01;9.97;;;5.80;;
12986;SDS011;58897;51.960;5.582;2023-05-10T10:20:29;11.17;;;6.27;;
12986;SDS011;58897;51.960;5.582;2023-05-10T10:22:56;9.30;;;5.93;;
12986;SDS011;58897;51.960;5.582;2023-05-10T10:25:23;8.73;;;5.77;;
12986;SDS011;58897;51.960;5.582;2023-05-10T10:35:38;12.77;;;6.13;;
12986;SDS011;58897;51.960;5.582;2023-05-10T10:38:07;8.07;;;5.93;;
12986;SDS011;58897;51.960;5.582;2023-05-10T10:40:34;10.23;;;5.87;;
12986;SDS011;58897;51.960;5.582;2023-05-10T10:46:12;8.20;;;5.60;;
12986;SDS011;58897;51.960;5.582;2023-05-10T10:48:48;10.20;;;6.17;;
12986;SDS011;58897;51.960;5.582;2023-05-10T10:51:17;9.33;;;6.10;;
12986;SDS011;58897;51.960;5.582;2023-05-10T10:53:44;9.33;;;6.00;;
12986;SDS011;58897;51.960;5.582;2023-05-10T10:56:11;10.97;;;6.43;;
12986;SDS011;58897;51.960;5.582;2023-05-10T10:58:39;8.37;;;5.67;;
12986;SDS011;58897;51.960;5.582;2023-05-10T11:01:16;9.27;;;6.00;;
12986;SDS011;58897;51.960;5.582;2023-05-10T11:06:32;10.20;;;5.27;;
12986;SDS011;58897;51.960;5.582;2023-05-10T11:09:10;8.63;;;5.30;;
12986;SDS011;58897;51.960;5.582;2023-05-10T11:11:53;9.13;;;5.37;;
12986;SDS011;58897;51.960;5.582;2023-05-10T11:14:21;7.53;;;5.37;;
12986;SDS011;58897;51.960;5.582;2023-05-10T11:16:48;9.20;;;4.97;;
12986;SDS011;58897;51.960;5.582;2023-05-10T11:19:16;10.97;;;5.07;;
12986;SDS011;58897;51.960;5.582;2023-05-10T11:21:47;7.53;;;4.63;;
12986;SDS011;58897;51.960;5.582;2023-05-10T11:24:18;7.90;;;4.60;;
12986;SDS011;58897;51.960;5.582;2023-05-10T11:26:46;7.70;;;4.53;;
12986;SDS011;58897;51.960;5.582;2023-05-10T11:29:15;9.73;;;4.87;;
12986;SDS011;58897;51.960;5.582;2023-05-10T11:31:42;8.13;;;5.10;;
12986;SDS011;58897;51.960;5.582;2023-05-10T11:34:11;6.97;;;4.70;;
12986;SDS011;58897;51.960;5.582;2023-05-10T11:36:38;6.93;;;4.40;;
12986;SDS011;58897;51.960;5.582;2023-05-10T11:39:05;7.20;;;4.53;;
12986;SDS011;58897;51.960;5.582;2023-05-10T11:41:32;7.20;;;4.50;;
12986;SDS011;58897;51.960;5.582;2023-05-10T11:43:58;7.17;;;4.53;;
12986;SDS011;58897;51.960;5.582;2023-05-10T11:46:26;7.50;;;4.47;;
12986;SDS011;58897;51.960;5.582;2023-05-10T11:48:55;7.57;;;4.50;;
12986;SDS011;58897;51.960;5.582;2023-05-10T11:51:27;5.87;;;3.73;;
12986;SDS011;58897;51.960;5.582;2023-05-10T11:53:54;4.97;;;3.60;;
12986;SDS011;58897;51.960;5.582;2023-05-10T11:56:22;5.03;;;3.73;;
12986;SDS011;58897;51.960;5.582;2023-05-10T11:58:56;4.90;;;3.17;;
12986;SDS011;58897;51.960;5.582;2023-05-10T12:01:24;5.03;;;4.17;;
12986;SDS011;58897;51.960;5.582;2023-05-10T12:03:53;6.23;;;4.23;;
12986;SDS011;58897;51.960;5.582;2023-05-10T12:06:28;4.97;;;3.83;;
12986;SDS011;58897;51.960;5.582;2023-05-10T12:08:58;4.57;;;3.70;;
12986;SDS011;58897;51.960;5.582;2023-05-10T12:11:25;6.30;;;4.60;;
12986;SDS011;58897;51.960;5.582;2023-05-10T12:13:53;6.90;;;4.17;;
12986;SDS011;58897;51.960;5.582;2023-05-10T12:16:22;5.17;;;3.90;;
12986;SDS011;58897;51.960;5.582;2023-05-10T12:18:55;6.13;;;3.77;;
12986;SDS011;58897;51.960;5.582;2023-05-10T12:21:23;5.77;;;3.80;;
12986;SDS011;58897;51.960;5.582;2023-05-10T12:23:51;5.57;;;4.07;;
12986;SDS011;58897;51.960;5.582;2023-05-10T12:26:22;5.40;;;4.00;;
12986;SDS011;58897;51.960;5.582;2023-05-10T12:28:50;7.73;;;4.33;;
12986;SDS011;58897;51.960;5.582;2023-05-10T12:31:17;5.07;;;3.80;;
12986;SDS011;58897;51.960;5.582;2023-05-10T12:33:43;5.87;;;4.43;;
12986;SDS011;58897;51.960;5.582;2023-05-10T12:36:13;6.63;;;4.40;;
12986;SDS011;58897;51.960;5.582;2023-05-10T12:38:41;5.27;;;4.30;;
12986;SDS011;58897;51.960;5.582;2023-05-10T12:41:10;7.20;;;4.47;;
12986;SDS011;58897;51.960;5.582;2023-05-10T12:43:38;5.80;;;5.00;;
12986;SDS011;58897;51.960;5.582;2023-05-10T12:46:06;6.17;;;5.40;;
12986;SDS011;58897;51.960;5.582;2023-05-10T12:48:33;6.13;;;5.30;;
12986;SDS011;58897;51.960;5.582;2023-05-10T12:51:01;6.03;;;5.33;;
12986;SDS011;58897;51.960;5.582;2023-05-10T12:53:28;9.53;;;6.43;;
12986;SDS011;58897;51.960;5.582;2023-05-10T12:55:55;6.67;;;5.43;;
12986;SDS011;58897;51.960;5.582;2023-05-10T12:58:22;9.30;;;7.23;;
12986;SDS011;58897;51.960;5.582;2023-05-10T13:01:01;7.47;;;5.93;;
12986;SDS011;58897;51.960;5.582;2023-05-10T13:03:28;7.63;;;6.00;;
12986;SDS011;58897;51.960;5.582;2023-05-10T13:05:54;9.73;;;6.50;;
12986;SDS011;58897;51.960;5.582;2023-05-10T13:08:20;6.63;;;5.20;;
12986;SDS011;58897;51.960;5.582;2023-05-10T13:10:47;7.63;;;5.40;;
12986;SDS011;58897;51.960;5.582;2023-05-10T13:13:14;5.97;;;5.23;;
12986;SDS011;58897;51.960;5.582;2023-05-10T13:15:41;6.57;;;5.60;;
12986;SDS011;58897;51.960;5.582;2023-05-10T13:18:08;8.07;;;6.70;;
12986;SDS011;58897;51.960;5.582;2023-05-10T13:20:34;9.20;;;6.87;;
12986;SDS011;58897;51.960;5.582;2023-05-10T13:23:01;9.10;;;6.93;;
12986;SDS011;58897;51.960;5.582;2023-05-10T13:25:28;8.47;;;6.93;;
12986;SDS011;58897;51.960;5.582;2023-05-10T13:27:55;8.07;;;7.27;;
12986;SDS011;58897;51.960;5.582;2023-05-10T13:30:21;8.27;;;7.17;;
12986;SDS011;58897;51.960;5.582;2023-05-10T13:32:48;8.10;;;6.70;;
12986;SDS011;58897;51.960;5.582;2023-05-10T13:35:14;6.93;;;5.80;;
12986;SDS011;58897;51.960;5.582;2023-05-10T13:37:41;6.50;;;5.80;;
12986;SDS011;58897;51.960;5.582;2023-05-10T13:40:08;6.57;;;5.83;;
12986;SDS011;58897;51.960;5.582;2023-05-10T13:42:34;5.60;;;4.93;;
12986;SDS011;58897;51.960;5.582;2023-05-10T13:45:01;6.77;;;4.90;;
12986;SDS011;58897;51.960;5.582;2023-05-10T13:47:28;4.93;;;4.30;;
12986;SDS011;58897;51.960;5.582;2023-05-10T13:49:55;5.60;;;4.77;;
12986;SDS011;58897;51.960;5.582;2023-05-10T13:52:22;4.07;;;3.57;;
12986;SDS011;58897;51.960;5.582;2023-05-10T13:54:48;8.33;;;4.37;;
12986;SDS011;58897;51.960;5.582;2023-05-10T13:57:15;5.90;;;4.00;;
12986;SDS011;58897;51.960;5.582;2023-05-10T13:59:42;4.80;;;4.03;;
12986;SDS011;58897;51.960;5.582;2023-05-10T14:02:09;4.00;;;3.50;;
12986;SDS011;58897;51.960;5.582;2023-05-10T14:04:36;4.93;;;4.00;;
12986;SDS011;58897;51.960;5.582;2023-05-10T14:07:03;4.73;;;3.70;;
12986;SDS011;58897;51.960;5.582;2023-05-10T14:09:30;4.13;;;3.70;;
12986;SDS011;58897;51.960;5.582;2023-05-10T14:11:57;5.10;;;4.23;;
12986;SDS011;58897;51.960;5.582;2023-05-10T14:14:23;4.53;;;3.87;;
12986;SDS011;58897;51.960;5.582;2023-05-10T14:16:50;5.43;;;4.30;;
12986;SDS011;58897;51.960;5.582;2023-05-10T14:19:17;6.90;;;4.60;;
12986;SDS011;58897;51.960;5.582;2023-05-10T14:21:44;9.80;;;5.90;;
12986;SDS011;58897;51.960;5.582;2023-05-10T14:24:10;5.43;;;4.57;;
12986;SDS011;58897;51.960;5.582;2023-05-10T14:26:36;5.77;;;4.37;;
12986;SDS011;58897;51.960;5.582;2023-05-10T14:29:03;6.67;;;4.67;;
12986;SDS011;58897;51.960;5.582;2023-05-10T14:31:30;6.03;;;4.90;;
12986;SDS011;58897;51.960;5.582;2023-05-10T14:33:56;8.37;;;4.90;;
12986;SDS011;58897;51.960;5.582;2023-05-10T14:36:23;9.40;;;5.50;;
12986;SDS011;58897;51.960;5.582;2023-05-10T14:38:50;7.63;;;4.93;;
12986;SDS011;58897;51.960;5.582;2023-05-10T14:41:17;8.77;;;5.97;;
12986;SDS011;58897;51.960;5.582;2023-05-10T14:43:44;8.03;;;4.87;;
12986;SDS011;58897;51.960;5.582;2023-05-10T14:46:10;10.40;;;5.17;;
12986;SDS011;58897;51.960;5.582;2023-05-10T14:48:37;7.03;;;4.97;;
12986;SDS011;58897;51.960;5.582;2023-05-10T14:51:03;7.53;;;5.03;;
12986;SDS011;58897;51.960;5.582;2023-05-10T14:53:30;10.13;;;5.20;;
12986;SDS011;58897;51.960;5.582;2023-05-10T14:55:56;8.37;;;6.03;;
12986;SDS011;58897;51.960;5.582;2023-05-10T14:58:23;8.10;;;5.40;;
12986;SDS011;58897;51.960;5.582;2023-05-10T15:00:50;10.73;;;5.50;;
12986;SDS011;58897;51.960;5.582;2023-05-10T15:03:17;7.87;;;4.77;;
12986;SDS011;58897;51.960;5.582;2023-05-10T15:05:44;10.13;;;5.30;;
12986;SDS011;58897;51.960;5.582;2023-05-10T15:08:11;7.07;;;4.67;;
12986;SDS011;58897;51.960;5.582;2023-05-10T15:10:39;9.47;;;5.40;;
12986;SDS011;58897;51.960;5.582;2023-05-10T15:13:05;7.77;;;4.93;;
12986;SDS011;58897;51.960;5.582;2023-05-10T15:15:32;6.57;;;4.63;;
12986;SDS011;58897;51.960;5.582;2023-05-10T15:17:58;8.00;;;4.70;;